createdAt,value
2023-02-26T00:01:40.717Z,99221.14
2023-02-26T00:04:08.928Z,99215.03
2023-02-26T00:06:38.954Z,99208.59
2023-02-26T00:09:06.757Z,99208.81
2023-02-26T00:11:34.098Z,99216.33
2023-02-26T00:14:01.440Z,99206.33
2023-02-26T00:16:35.660Z,99201.80
2023-02-26T00:19:06.823Z,99191.42
2023-02-26T00:21:35.650Z,99195.66
2023-02-26T00:24:03.461Z,99188.67
2023-02-26T00:26:31.674Z,99190.48
2023-02-26T00:29:00.662Z,99186.89
2023-02-26T00:31:27.961Z,99179.30
2023-02-26T00:33:56.908Z,99175.66
2023-02-26T00:37:02.883Z,99177.93
2023-02-26T00:39:33.826Z,99182.58
2023-02-26T00:42:01.089Z,99193.77
2023-02-26T00:44:29.154Z,99196.07
2023-02-26T00:47:09.314Z,99188.69
2023-02-26T00:49:53.977Z,99186.89
2023-02-26T00:52:45.829Z,99202.63
2023-02-26T00:55:12.954Z,99205.70
2023-02-26T00:57:39.907Z,99201.85
2023-02-26T01:00:07.820Z,99194.05
2023-02-26T01:02:38.672Z,99193.84
2023-02-26T01:05:06.532Z,99195.67
2023-02-26T01:08:01.555Z,99193.06
2023-02-26T01:10:29.076Z,99194.72
2023-02-26T01:12:56.898Z,99197.69
2023-02-26T01:15:24.672Z,99191.46
2023-02-26T01:18:01.262Z,99194.27
2023-02-26T01:20:41.144Z,99193.27
2023-02-26T01:23:25.849Z,99202.48
2023-02-26T01:26:24.014Z,99205.63
2023-02-26T01:28:52.142Z,99209.08
2023-02-26T01:31:49.783Z,99213.71
2023-02-26T01:34:33.810Z,99212.23
2023-02-26T01:37:45.350Z,99212.33
2023-02-26T01:40:15.555Z,99213.90
2023-02-26T01:42:48.089Z,99215.24
2023-02-26T01:45:19.804Z,99212.27
2023-02-26T01:48:03.055Z,99212.48
2023-02-26T01:50:35.363Z,99208.00
2023-02-26T01:53:24.238Z,99215.85
2023-02-26T01:55:58.078Z,99218.05
2023-02-26T01:58:30.693Z,99219.77
2023-02-26T02:00:57.784Z,99225.33
2023-02-26T02:03:27.915Z,99227.30
2023-02-26T02:06:02.948Z,99225.13
2023-02-26T02:08:34.905Z,99228.42
2023-02-26T02:11:11.087Z,99216.77
2023-02-26T02:13:45.339Z,99214.88
2023-02-26T02:16:28.941Z,99216.92
2023-02-26T02:19:33.373Z,99217.25
2023-02-26T02:22:40.570Z,99218.42
2023-02-26T02:25:37.119Z,99221.91
2023-02-26T02:28:35.533Z,99220.80
2023-02-26T02:31:21.151Z,99216.77
2023-02-26T02:34:03.547Z,99216.02
2023-02-26T02:36:48.558Z,99221.90
2023-02-26T02:39:25.924Z,99229.34
2023-02-26T02:42:20.127Z,99224.52
2023-02-26T02:44:54.637Z,99235.71
2023-02-26T02:47:23.465Z,99243.88
2023-02-26T02:50:04.990Z,99246.11
2023-02-26T02:52:44.487Z,99245.77
2023-02-26T02:55:20.712Z,99249.44
2023-02-26T02:58:04.909Z,99251.70
2023-02-26T03:00:38.322Z,99254.91
2023-02-26T03:03:30.264Z,99260.62
2023-02-26T03:05:57.679Z,99265.36
2023-02-26T03:08:34.704Z,99264.15
2023-02-26T03:11:01.997Z,99270.44
2023-02-26T03:13:29.065Z,99275.58
2023-02-26T03:16:13.325Z,99280.04
2023-02-26T03:18:52.090Z,99278.35
2023-02-26T03:21:23.212Z,99285.64
2023-02-26T03:24:08.694Z,99279.05
2023-02-26T03:26:46.577Z,99277.86
2023-02-26T03:29:18.574Z,99276.56
2023-02-26T03:31:52.123Z,99278.52
2023-02-26T03:34:41.170Z,99282.98
2023-02-26T03:37:44.383Z,99285.91
2023-02-26T03:40:29.980Z,99288.61
2023-02-26T03:43:05.848Z,99285.98
2023-02-26T03:45:36.131Z,99290.98
2023-02-26T03:48:06.936Z,99300.59
2023-02-26T03:50:39.787Z,99299.12
2023-02-26T03:53:45.604Z,99301.27
2023-02-26T03:56:34.582Z,99302.90
2023-02-26T03:59:11.974Z,99308.63
2023-02-26T04:01:56.240Z,99303.73
2023-02-26T04:04:30.392Z,99308.71
2023-02-26T04:06:58.585Z,99307.55
2023-02-26T04:09:26.527Z,99308.41
2023-02-26T04:11:56.702Z,99311.11
2023-02-26T04:14:24.010Z,99310.16
2023-02-26T04:16:52.107Z,99314.77
2023-02-26T04:19:21.341Z,99318.00
2023-02-26T04:21:48.364Z,99315.45
2023-02-26T04:24:15.596Z,99317.80
2023-02-26T04:26:44.977Z,99322.12
2023-02-26T04:29:11.868Z,99324.35
2023-02-26T04:31:40.654Z,99328.91
2023-02-26T04:34:07.730Z,99334.84
2023-02-26T04:36:34.646Z,99341.89
2023-02-26T04:39:01.625Z,99343.02
2023-02-26T04:41:30.461Z,99338.66
2023-02-26T04:43:57.393Z,99339.77
2023-02-26T04:46:26.969Z,99343.92
2023-02-26T04:48:54.266Z,99342.80
2023-02-26T04:51:21.715Z,99342.73
2023-02-26T04:53:50.397Z,99342.97
2023-02-26T04:56:17.334Z,99341.04
2023-02-26T04:58:44.929Z,99340.36
2023-02-26T05:01:15.446Z,99341.59
2023-02-26T05:03:42.345Z,99340.12
2023-02-26T05:06:10.653Z,99336.78
2023-02-26T05:08:41.616Z,99331.95
2023-02-26T05:11:10.270Z,99335.11
2023-02-26T05:13:38.564Z,99334.02
2023-02-26T05:16:06.921Z,99336.30
2023-02-26T05:18:34.986Z,99332.05
2023-02-26T05:21:02.376Z,99325.33
2023-02-26T05:23:29.445Z,99323.90
2023-02-26T05:25:57.593Z,99320.88
2023-02-26T05:28:26.388Z,99318.97
2023-02-26T05:30:55.419Z,99323.30
2023-02-26T05:33:22.430Z,99326.21
2023-02-26T05:35:50.280Z,99333.04
2023-02-26T05:38:17.371Z,99337.45
2023-02-26T05:40:47.133Z,99338.67
2023-02-26T05:43:14.301Z,99339.10
2023-02-26T05:45:41.147Z,99338.15
2023-02-26T05:48:10.678Z,99344.20
2023-02-26T05:50:37.636Z,99354.80
2023-02-26T05:53:04.591Z,99354.72
2023-02-26T05:55:31.551Z,99355.46
2023-02-26T05:57:59.947Z,99354.98
2023-02-26T06:00:28.049Z,99364.09
2023-02-26T06:02:54.976Z,99371.77
2023-02-26T06:05:26.449Z,99381.68
2023-02-26T06:07:54.911Z,99398.38
2023-02-26T06:10:22.077Z,99414.44
2023-02-26T06:12:50.452Z,99429.87
2023-02-26T06:15:17.960Z,99435.77
2023-02-26T06:17:44.831Z,99442.60
2023-02-26T06:20:18.215Z,99448.87
2023-02-26T06:22:45.865Z,99447.65
2023-02-26T06:25:13.503Z,99448.02
2023-02-26T06:27:40.446Z,99449.00
2023-02-26T06:30:07.934Z,99448.94
2023-02-26T06:32:35.129Z,99456.45
2023-02-26T06:35:02.188Z,99458.89
2023-02-26T06:37:32.770Z,99463.75
2023-02-26T06:40:00.167Z,99465.73
2023-02-26T06:42:27.114Z,99467.34
2023-02-26T06:44:53.995Z,99475.88
2023-02-26T06:47:20.884Z,99478.20
2023-02-26T06:49:48.597Z,99479.95
2023-02-26T06:52:16.428Z,99481.56
2023-02-26T06:54:43.686Z,99481.43
2023-02-26T06:57:10.830Z,99483.95
2023-02-26T06:59:37.954Z,99486.80
2023-02-26T07:02:04.971Z,99492.48
2023-02-26T07:04:32.021Z,99494.25
2023-02-26T07:06:59.008Z,99498.45
2023-02-26T07:09:25.987Z,99497.30
2023-02-26T07:11:53.579Z,99506.70
2023-02-26T07:14:20.711Z,99505.54
2023-02-26T07:16:50.559Z,99512.94
2023-02-26T07:19:19.049Z,99513.47
2023-02-26T07:21:46.761Z,99517.13
2023-02-26T07:24:13.671Z,99520.41
2023-02-26T07:26:40.972Z,99519.84
2023-02-26T07:29:08.150Z,99522.67
2023-02-26T07:31:36.297Z,99521.02
2023-02-26T07:34:04.700Z,99524.41
2023-02-26T07:36:32.497Z,99526.55
2023-02-26T07:38:59.664Z,99517.19
2023-02-26T07:41:27.095Z,99511.52
2023-02-26T07:43:54.162Z,99511.80
2023-02-26T07:46:21.658Z,99512.17
2023-02-26T07:48:48.607Z,99515.23
2023-02-26T07:51:15.512Z,99522.27
2023-02-26T07:53:43.424Z,99520.98
2023-02-26T07:56:12.474Z,99521.19
2023-02-26T07:58:39.412Z,99527.03
2023-02-26T08:01:06.537Z,99525.06
2023-02-26T08:03:33.530Z,99524.64
2023-02-26T08:06:00.486Z,99523.90
2023-02-26T08:08:34.195Z,99520.07
2023-02-26T08:11:02.671Z,99517.98
2023-02-26T08:13:30.141Z,99508.92
2023-02-26T08:15:57.419Z,99511.48
2023-02-26T08:18:25.967Z,99521.75
2023-02-26T08:20:56.298Z,99517.91
2023-02-26T08:23:26.202Z,99526.11
2023-02-26T08:26:07.496Z,99521.98
2023-02-26T08:28:34.844Z,99531.11
2023-02-26T08:31:05.402Z,99535.40
2023-02-26T08:33:34.368Z,99536.04
2023-02-26T08:36:01.519Z,99533.43
2023-02-26T08:38:29.904Z,99543.56
2023-02-26T08:40:57.273Z,99550.13
2023-02-26T08:43:25.904Z,99558.70
2023-02-26T08:45:54.549Z,99553.42
2023-02-26T08:48:22.637Z,99556.61
2023-02-26T08:50:50.681Z,99562.36
2023-02-26T08:53:17.620Z,99580.67
2023-02-26T08:55:50.850Z,99601.66
2023-02-26T08:58:19.614Z,99611.77
2023-02-26T09:00:47.676Z,99624.77
2023-02-26T09:03:15.345Z,99626.72
2023-02-26T09:05:42.383Z,99622.34
2023-02-26T09:08:10.952Z,99620.02
2023-02-26T09:10:41.117Z,99624.17
2023-02-26T09:13:09.334Z,99632.90
2023-02-26T09:15:36.230Z,99638.09
2023-02-26T09:18:03.486Z,99641.69
2023-02-26T09:20:30.646Z,99641.45
2023-02-26T09:22:58.117Z,99639.66
2023-02-26T09:25:24.977Z,99649.43
2023-02-26T09:27:51.889Z,99648.09
2023-02-26T09:30:18.809Z,99651.48
2023-02-26T09:32:46.519Z,99655.42
2023-02-26T09:35:13.758Z,99652.70
2023-02-26T09:37:40.967Z,99649.02
2023-02-26T09:40:25.382Z,99669.89
2023-02-26T09:43:04.361Z,99668.71
2023-02-26T09:45:38.663Z,99662.71
2023-02-26T09:48:07.210Z,99668.29
2023-02-26T09:50:50.279Z,99675.35
2023-02-26T09:53:33.791Z,99679.42
2023-02-26T09:56:06.640Z,99681.85
2023-02-26T09:58:38.735Z,99677.09
2023-02-26T10:01:24.281Z,99682.91
2023-02-26T10:04:15.485Z,99682.75
2023-02-26T10:06:57.845Z,99683.98
2023-02-26T10:09:30.423Z,99684.62
2023-02-26T10:12:07.665Z,99690.28
2023-02-26T10:14:37.493Z,99689.35
2023-02-26T10:17:31.217Z,99686.64
2023-02-26T10:20:04.703Z,99688.51
2023-02-26T10:22:31.770Z,99693.10
2023-02-26T10:25:05.876Z,99689.38
2023-02-26T10:27:53.133Z,99692.34
2023-02-26T10:30:49.536Z,99694.02
2023-02-26T10:33:43.684Z,99697.33
2023-02-26T10:36:44.397Z,99701.33
2023-02-26T10:39:27.756Z,99695.63
2023-02-26T10:41:59.249Z,99690.82
2023-02-26T10:44:58.866Z,99692.27
2023-02-26T10:47:28.692Z,99694.09
2023-02-26T10:50:09.277Z,99696.48
2023-02-26T10:52:37.596Z,99694.40
2023-02-26T10:55:25.224Z,99696.97
2023-02-26T10:58:14.739Z,99695.77
2023-02-26T11:00:47.032Z,99690.29
2023-02-26T11:03:21.534Z,99679.57
2023-02-26T11:05:49.051Z,99679.58
2023-02-26T11:08:40.253Z,99677.48
2023-02-26T11:11:07.701Z,99683.39
2023-02-26T11:13:38.242Z,99687.64
2023-02-26T11:16:11.786Z,99684.30
2023-02-26T11:18:43.801Z,99691.64
2023-02-26T11:21:18.978Z,99693.24
2023-02-26T11:23:59.222Z,99697.44
2023-02-26T11:26:30.510Z,99703.20
2023-02-26T11:28:59.089Z,99701.05
2023-02-26T11:31:27.390Z,99706.75
2023-02-26T11:34:08.410Z,99714.06
2023-02-26T11:36:39.840Z,99719.10
2023-02-26T11:39:23.293Z,99712.45
2023-02-26T11:41:54.935Z,99719.95
2023-02-26T11:44:39.302Z,99730.27
2023-02-26T11:47:13.556Z,99745.39
2023-02-26T11:49:49.544Z,99757.82
2023-02-26T11:52:32.421Z,99760.16
2023-02-26T11:55:02.612Z,99762.22
2023-02-26T11:57:32.708Z,99768.50
2023-02-26T12:00:16.416Z,99766.11
2023-02-26T12:02:45.047Z,99770.11
2023-02-26T12:05:16.718Z,99773.68
2023-02-26T12:07:46.380Z,99778.66
2023-02-26T12:10:18.336Z,99781.23
2023-02-26T12:13:19.165Z,99783.23
2023-02-26T12:16:13.697Z,99785.48
2023-02-26T12:19:21.524Z,99788.80
2023-02-26T12:22:13.206Z,99792.67
2023-02-26T12:24:58.375Z,99801.27
2023-02-26T12:27:47.380Z,99808.98
2023-02-26T12:30:44.995Z,99808.83
2023-02-26T12:33:16.679Z,99816.81
2023-02-26T12:35:56.177Z,99819.95
2023-02-26T12:38:54.568Z,99825.48
2023-02-26T12:41:44.435Z,99830.50
2023-02-26T12:44:31.968Z,99827.26
2023-02-26T12:47:24.035Z,99823.88
2023-02-26T12:50:20.939Z,99824.55
2023-02-26T12:52:54.686Z,99831.73
2023-02-26T12:55:33.648Z,99827.25
2023-02-26T12:58:26.522Z,99826.86
2023-02-26T13:01:15.566Z,99824.17
2023-02-26T13:04:01.255Z,99818.97
2023-02-26T13:06:34.936Z,99818.27
2023-02-26T13:09:38.074Z,99811.23
2023-02-26T13:12:09.336Z,99810.03
2023-02-26T13:14:50.638Z,99807.27
2023-02-26T13:17:36.936Z,99802.67
2023-02-26T13:20:16.420Z,99817.16
2023-02-26T13:22:51.356Z,99823.90
2023-02-26T13:25:33.245Z,99832.62
2023-02-26T13:28:09.594Z,99848.16
2023-02-26T13:30:46.716Z,99850.08
2023-02-26T13:33:19.250Z,99848.54
2023-02-26T13:35:50.690Z,99837.86
2023-02-26T13:38:40.636Z,99821.75
2023-02-26T13:41:14.970Z,99821.48
2023-02-26T13:44:19.648Z,99824.87
2023-02-26T13:47:05.446Z,99825.96
2023-02-26T13:50:08.292Z,99832.20
2023-02-26T13:52:36.440Z,99830.04
2023-02-26T13:55:05.438Z,99818.52
2023-02-26T13:57:32.724Z,99812.34
2023-02-26T14:00:11.005Z,99812.99
2023-02-26T14:02:46.807Z,99811.23
2023-02-26T14:05:31.107Z,99813.80
2023-02-26T14:07:58.000Z,99815.15
2023-02-26T14:10:43.867Z,99817.22
2023-02-26T14:13:16.653Z,99820.07
2023-02-26T14:16:01.936Z,99828.40
2023-02-26T14:18:48.165Z,99826.64
2023-02-26T14:21:24.646Z,99827.05
2023-02-26T14:24:15.724Z,99825.20
2023-02-26T14:27:03.139Z,99829.56
2023-02-26T14:29:57.722Z,99846.74
2023-02-26T14:32:54.004Z,99850.34
2023-02-26T14:35:27.843Z,99852.54
2023-02-26T14:38:07.385Z,99857.42
2023-02-26T14:40:50.848Z,99857.46
2023-02-26T14:43:43.069Z,99855.79
2023-02-26T14:46:11.050Z,99857.50
2023-02-26T14:48:39.152Z,99857.87
2023-02-26T14:51:31.290Z,99858.43
2023-02-26T14:54:07.931Z,99860.17
2023-02-26T14:56:47.240Z,99858.66
2023-02-26T14:59:24.059Z,99865.95
2023-02-26T15:01:53.299Z,99865.29
2023-02-26T15:04:52.438Z,99867.02
2023-02-26T15:07:44.061Z,99868.97
2023-02-26T15:10:42.262Z,99871.91
2023-02-26T15:13:40.127Z,99879.13
2023-02-26T15:16:51.267Z,99879.48
2023-02-26T15:19:33.599Z,99885.64
2023-02-26T15:22:05.114Z,99892.38
2023-02-26T15:24:32.611Z,99892.92
2023-02-26T15:27:06.002Z,99898.16
2023-02-26T15:29:38.238Z,99901.37
2023-02-26T15:32:22.713Z,99892.48
2023-02-26T15:35:07.105Z,99889.85
2023-02-26T15:37:34.990Z,99894.20
2023-02-26T15:40:06.785Z,99892.16
2023-02-26T15:42:38.640Z,99889.98
2023-02-26T15:45:30.909Z,99893.48
2023-02-26T15:48:02.268Z,99892.91
2023-02-26T15:50:33.378Z,99893.94
2023-02-26T15:53:03.574Z,99901.42
2023-02-26T15:55:43.592Z,99905.55
2023-02-26T15:58:20.026Z,99910.16
2023-02-26T16:00:53.514Z,99912.87
2023-02-26T16:03:30.621Z,99916.61
2023-02-26T16:05:58.487Z,99921.02
2023-02-26T16:08:26.313Z,99926.53
2023-02-26T16:10:56.977Z,99927.10
2023-02-26T16:13:31.119Z,99932.16
2023-02-26T16:16:02.737Z,99937.20
2023-02-26T16:18:32.677Z,99937.80
2023-02-26T16:21:03.755Z,99934.65
2023-02-26T16:23:45.850Z,99935.52
2023-02-26T16:26:21.940Z,99935.70
2023-02-26T16:28:57.619Z,99937.34
2023-02-26T16:31:27.058Z,99934.04
2023-02-26T16:33:58.871Z,99934.68
2023-02-26T16:36:31.128Z,99935.41
2023-02-26T16:39:08.553Z,99938.00
2023-02-26T16:41:40.264Z,99938.23
2023-02-26T16:44:29.676Z,99941.55
2023-02-26T16:47:01.878Z,99945.45
2023-02-26T16:49:35.679Z,99941.45
2023-02-26T16:52:04.828Z,99948.30
2023-02-26T16:54:36.288Z,99946.33
2023-02-26T16:57:07.826Z,99944.05
2023-02-26T16:59:38.014Z,99941.95
2023-02-26T17:02:18.008Z,99937.34
2023-02-26T17:04:52.018Z,99934.23
2023-02-26T17:07:32.624Z,99919.80
2023-02-26T17:10:21.243Z,99902.33
2023-02-26T17:12:53.275Z,99908.93
2023-02-26T17:15:29.329Z,99908.00
2023-02-26T17:18:03.687Z,99904.83
2023-02-26T17:20:31.895Z,99914.52
2023-02-26T17:23:01.119Z,99923.31
2023-02-26T17:25:35.218Z,99919.48
2023-02-26T17:28:03.355Z,99939.02
2023-02-26T17:30:34.104Z,99950.54
2023-02-26T17:33:03.792Z,99943.80
2023-02-26T17:35:35.090Z,99938.02
2023-02-26T17:38:02.406Z,99956.64
2023-02-26T17:40:35.854Z,99960.25
2023-02-26T17:43:04.245Z,99955.84
2023-02-26T17:45:33.066Z,99952.44
2023-02-26T17:48:00.796Z,99957.10
2023-02-26T17:50:40.134Z,99961.75
2023-02-26T17:53:07.697Z,99969.03
2023-02-26T17:55:38.729Z,99974.10
2023-02-26T17:58:12.773Z,99986.27
2023-02-26T18:00:42.560Z,99991.67
2023-02-26T18:03:10.525Z,100000.23
2023-02-26T18:05:39.966Z,100010.32
2023-02-26T18:08:16.875Z,100015.39
2023-02-26T18:10:43.730Z,100016.30
2023-02-26T18:13:10.850Z,100019.09
2023-02-26T18:15:38.189Z,100025.73
2023-02-26T18:18:05.806Z,100028.13
2023-02-26T18:20:32.940Z,100027.52
2023-02-26T18:23:02.620Z,100031.10
2023-02-26T18:25:44.786Z,100033.27
2023-02-26T18:28:23.332Z,100029.00
2023-02-26T18:30:51.770Z,100034.27
2023-02-26T18:33:21.303Z,100038.02
2023-02-26T18:35:52.618Z,100038.30
2023-02-26T18:38:22.646Z,100040.84
2023-02-26T18:40:53.288Z,100044.88
2023-02-26T18:43:21.235Z,100050.31
2023-02-26T18:45:50.024Z,100050.75
2023-02-26T18:48:20.252Z,100053.91
2023-02-26T18:50:48.455Z,100055.36
2023-02-26T18:53:17.112Z,100062.70
2023-02-26T18:55:44.647Z,100066.02
2023-02-26T18:58:12.577Z,100071.14
2023-02-26T19:00:39.984Z,100067.90
2023-02-26T19:03:08.691Z,100067.41
2023-02-26T19:05:36.257Z,100065.45
2023-02-26T19:08:03.383Z,100064.98
2023-02-26T19:10:31.234Z,100057.23
2023-02-26T19:13:00.600Z,100054.70
2023-02-26T19:15:27.835Z,100051.54
2023-02-26T19:17:54.912Z,100054.91
2023-02-26T19:20:22.546Z,100055.70
2023-02-26T19:22:54.468Z,100052.57
2023-02-26T19:25:25.308Z,100061.73
2023-02-26T19:27:52.802Z,100058.25
2023-02-26T19:30:24.424Z,100066.34
2023-02-26T19:32:52.801Z,100067.25
2023-02-26T19:35:20.372Z,100067.24
2023-02-26T19:37:47.958Z,100066.95
2023-02-26T19:40:19.167Z,100074.00
2023-02-26T19:42:47.160Z,100079.11
2023-02-26T19:45:15.439Z,100075.27
2023-02-26T19:47:43.052Z,100074.85
2023-02-26T19:50:11.157Z,100077.63
2023-02-26T19:52:38.103Z,100075.76
2023-02-26T19:55:06.882Z,100073.59
2023-02-26T19:57:34.256Z,100080.46
2023-02-26T20:00:02.751Z,100069.65
2023-02-26T20:02:39.021Z,100068.12
2023-02-26T20:05:07.370Z,100071.16
2023-02-26T20:07:34.783Z,100066.09
2023-02-26T20:10:05.934Z,100075.92
2023-02-26T20:12:34.193Z,100071.39
2023-02-26T20:15:01.364Z,100070.55
2023-02-26T20:17:29.208Z,100077.52
2023-02-26T20:19:58.456Z,100084.68
2023-02-26T20:22:31.320Z,100085.84
2023-02-26T20:24:59.412Z,100085.48
2023-02-26T20:27:26.707Z,100092.14
2023-02-26T20:29:53.625Z,100096.46
2023-02-26T20:32:20.992Z,100104.84
2023-02-26T20:34:48.047Z,100102.59
2023-02-26T20:37:15.490Z,100097.19
2023-02-26T20:39:43.484Z,100102.25
2023-02-26T20:42:10.774Z,100104.69
2023-02-26T20:44:37.958Z,100102.46
2023-02-26T20:47:05.576Z,100102.27
2023-02-26T20:49:33.212Z,100091.11
2023-02-26T20:52:01.030Z,100086.20
2023-02-26T20:54:28.320Z,100083.15
2023-02-26T20:56:57.840Z,100086.77
2023-02-26T20:59:25.369Z,100087.66
2023-02-26T21:01:53.289Z,100090.11
2023-02-26T21:04:20.510Z,100089.75
2023-02-26T21:06:47.588Z,100087.95
2023-02-26T21:09:14.574Z,100094.77
2023-02-26T21:11:42.156Z,100103.17
2023-02-26T21:14:10.162Z,100106.58
2023-02-26T21:16:40.153Z,100104.24
2023-02-26T21:19:07.102Z,100106.58
2023-02-26T21:21:34.426Z,100106.25
2023-02-26T21:24:02.086Z,100101.85
2023-02-26T21:26:29.265Z,100098.34
2023-02-26T21:28:56.347Z,100101.55
2023-02-26T21:31:23.416Z,100100.02
2023-02-26T21:33:50.767Z,100099.26
2023-02-26T21:36:17.632Z,100091.20
2023-02-26T21:38:47.544Z,100092.27
2023-02-26T21:41:14.586Z,100100.88
2023-02-26T21:43:43.364Z,100103.98
2023-02-26T21:46:10.292Z,100113.84
2023-02-26T21:48:37.198Z,100123.54
2023-02-26T21:51:04.530Z,100124.20
2023-02-26T21:53:32.300Z,100127.36
2023-02-26T21:55:59.193Z,100127.52
2023-02-26T21:58:31.542Z,100138.62
2023-02-26T22:01:00.555Z,100143.27
2023-02-26T22:03:27.544Z,100145.30
2023-02-26T22:05:54.937Z,100156.96
2023-02-26T22:08:22.246Z,100159.27
2023-02-26T22:10:49.547Z,100162.92
2023-02-26T22:13:16.603Z,100163.88
2023-02-26T22:15:44.204Z,100168.35
2023-02-26T22:18:13.617Z,100171.55
2023-02-26T22:20:40.830Z,100172.05
2023-02-26T22:23:07.814Z,100175.50
2023-02-26T22:25:35.876Z,100177.80
2023-02-26T22:28:03.028Z,100178.86
2023-02-26T22:30:32.178Z,100184.95
2023-02-26T22:32:59.202Z,100184.05
2023-02-26T22:35:26.275Z,100187.23
2023-02-26T22:37:53.811Z,100189.16
2023-02-26T22:40:21.237Z,100185.55
2023-02-26T22:42:48.661Z,100186.73
2023-02-26T22:45:16.935Z,100188.10
2023-02-26T22:47:45.081Z,100193.05
2023-02-26T22:50:13.779Z,100195.45
2023-02-26T22:52:41.797Z,100196.64
2023-02-26T22:55:10.705Z,100193.37
2023-02-26T22:57:38.212Z,100194.42
2023-02-26T23:00:10.790Z,100198.75
2023-02-26T23:02:40.740Z,100209.17
2023-02-26T23:05:11.090Z,100211.10
2023-02-26T23:07:41.851Z,100214.27
2023-02-26T23:10:13.862Z,100213.20
2023-02-26T23:12:41.980Z,100221.02
2023-02-26T23:15:09.505Z,100228.33
2023-02-26T23:17:36.982Z,100227.36
2023-02-26T23:20:09.563Z,100231.20
2023-02-26T23:22:38.982Z,100235.81
2023-02-26T23:25:06.117Z,100237.02
2023-02-26T23:27:33.807Z,100234.04
2023-02-26T23:30:01.468Z,100236.63
2023-02-26T23:32:28.920Z,100244.67
2023-02-26T23:34:57.047Z,100238.74
2023-02-26T23:37:24.437Z,100240.36
2023-02-26T23:39:52.370Z,100238.05
2023-02-26T23:42:19.617Z,100241.73
2023-02-26T23:44:46.563Z,100235.24
2023-02-26T23:47:13.771Z,100240.84
2023-02-26T23:49:41.979Z,100241.96
2023-02-26T23:52:08.967Z,100245.15
2023-02-26T23:54:39.148Z,100245.33
2023-02-26T23:57:06.546Z,100250.23
2023-02-26T23:59:34.160Z,100258.70
